Hauptseite
METAR-TAF:

METAR-TAF

Flughäfen :

Flugplatz Laupheim

Laupheim, Deutschland

Breite: 48-13N, Länge: 009-55E, Höhe: 538 m

Beobachtung

Neuester Wetterbericht von vor 28 Minuten, um 12:20 UTC
Wind 3 kt aus Südwest
Temperatur 29°C
Luftfeuchtigkeit 31%
Luftdruck 1016 hPa
Sichtweite 10 km oder mehr
Durchbrochene Bewölkung in der Höhe von 6000 ft
Leicht bewölkt in der Höhe von 7000 ft, Kumulonimbus.
Gewitter in der Nähe

METAR: ETHL 171220Z 23003KT 9999 VCTS BKN060 FEW070CB 29/10 Q1016 BLACKBLU

Zeit: 14:48 (12:48 UTC)

Prognose

Neuester Wetterbericht von vor 3 Stunden und 44 Minuten, um 09:04 UTC
Gültige Prognose vom 17 um 08 UTC bis 17 um 17 UTC
Wind 7 kt aus West/Südwest
Sichtweite: 1000 m
Leicht bewölkt in der Höhe von 5000 ft
Aufgelockert bewölkt in der Höhe von 30000 ft

TAF: ETHL 170904Z 1708/1717 25007KT 9999 NSW FEW050 SCT300 CANCEL 1000

Wetterbeobachtungen und Prognosen von mehr als 4000 Flughäfen (METAR und TAF Bericht).

Die verfügbaren Stationen werden durch gelbe und rote Markierungen auf der Karte dargestellt.

Führen Sie die Maus auf sie, um den Namen der Station zu sehen.

Darauf klicken, um die Beobachtung von Wetterbeobachtungen und Prognosen zu sehen.

Um die Karte zu ändern : klicken Sie auf den grünen Tasten mit einem schwarzen Kreuz Zum Vergrößern, auf den grünen Button mit einem Gedankenstrich zu verkleinern, oder auf die grünen Pfeile für benachbarte Karten.


METAR-TAF: